sensor_id;sensor_type;location;lat;lon;timestamp;P1;durP1;ratioP1;P2;durP2;ratioP2
23115;SDS011;11727;52.134;5.052;2023-10-13T00:01:48;18.70;;;7.32;;
23115;SDS011;11727;52.134;5.052;2023-10-13T00:04:16;17.17;;;7.40;;
23115;SDS011;11727;52.134;5.052;2023-10-13T00:06:42;18.52;;;7.47;;
23115;SDS011;11727;52.134;5.052;2023-10-13T00:09:08;13.82;;;6.75;;
23115;SDS011;11727;52.134;5.052;2023-10-13T00:11:41;15.10;;;6.72;;
23115;SDS011;11727;52.134;5.052;2023-10-13T00:14:10;14.65;;;6.80;;
23115;SDS011;11727;52.134;5.052;2023-10-13T00:16:41;12.40;;;6.43;;
23115;SDS011;11727;52.134;5.052;2023-10-13T00:19:07;16.00;;;7.57;;
23115;SDS011;11727;52.134;5.052;2023-10-13T00:21:35;16.10;;;7.75;;
23115;SDS011;11727;52.134;5.052;2023-10-13T00:24:01;14.95;;;6.78;;
23115;SDS011;11727;52.134;5.052;2023-10-13T00:26:30;12.50;;;6.68;;
23115;SDS011;11727;52.134;5.052;2023-10-13T00:29:01;17.40;;;7.25;;
23115;SDS011;11727;52.134;5.052;2023-10-13T00:31:53;13.38;;;6.80;;
23115;SDS011;11727;52.134;5.052;2023-10-13T00:34:19;14.07;;;6.80;;
23115;SDS011;11727;52.134;5.052;2023-10-13T00:36:53;15.98;;;7.72;;
23115;SDS011;11727;52.134;5.052;2023-10-13T00:39:43;14.07;;;7.38;;
23115;SDS011;11727;52.134;5.052;2023-10-13T00:42:10;15.18;;;8.30;;
23115;SDS011;11727;52.134;5.052;2023-10-13T00:44:44;18.38;;;8.40;;
23115;SDS011;11727;52.134;5.052;2023-10-13T00:47:14;15.10;;;7.78;;
23115;SDS011;11727;52.134;5.052;2023-10-13T00:49:44;19.23;;;9.23;;
23115;SDS011;11727;52.134;5.052;2023-10-13T00:52:12;21.08;;;9.30;;
23115;SDS011;11727;52.134;5.052;2023-10-13T00:54:40;24.85;;;10.02;;
23115;SDS011;11727;52.134;5.052;2023-10-13T00:57:12;24.20;;;8.23;;
23115;SDS011;11727;52.134;5.052;2023-10-13T00:59:54;18.85;;;9.25;;
23115;SDS011;11727;52.134;5.052;2023-10-13T01:02:22;18.15;;;8.35;;
23115;SDS011;11727;52.134;5.052;2023-10-13T01:05:02;18.30;;;7.88;;
23115;SDS011;11727;52.134;5.052;2023-10-13T01:07:29;14.43;;;8.07;;
23115;SDS011;11727;52.134;5.052;2023-10-13T01:09:54;19.40;;;9.18;;
23115;SDS011;11727;52.134;5.052;2023-10-13T01:12:21;18.70;;;8.05;;
23115;SDS011;11727;52.134;5.052;2023-10-13T01:14:49;18.02;;;7.88;;
23115;SDS011;11727;52.134;5.052;2023-10-13T01:17:15;19.73;;;8.10;;
23115;SDS011;11727;52.134;5.052;2023-10-13T01:19:40;17.30;;;7.72;;
23115;SDS011;11727;52.134;5.052;2023-10-13T01:22:11;16.83;;;7.03;;
23115;SDS011;11727;52.134;5.052;2023-10-13T01:24:37;12.98;;;7.15;;
23115;SDS011;11727;52.134;5.052;2023-10-13T01:27:06;17.60;;;7.78;;
23115;SDS011;11727;52.134;5.052;2023-10-13T01:29:45;14.70;;;7.18;;
23115;SDS011;11727;52.134;5.052;2023-10-13T01:32:29;16.33;;;7.82;;
23115;SDS011;11727;52.134;5.052;2023-10-13T01:34:54;13.35;;;7.35;;
23115;SDS011;11727;52.134;5.052;2023-10-13T01:37:20;14.75;;;7.60;;
23115;SDS011;11727;52.134;5.052;2023-10-13T01:39:47;14.80;;;7.55;;
23115;SDS011;11727;52.134;5.052;2023-10-13T01:42:14;16.35;;;7.20;;
23115;SDS011;11727;52.134;5.052;2023-10-13T01:44:46;16.27;;;7.88;;
23115;SDS011;11727;52.134;5.052;2023-10-13T01:47:14;16.23;;;7.50;;
23115;SDS011;11727;52.134;5.052;2023-10-13T01:49:41;12.25;;;6.57;;
23115;SDS011;11727;52.134;5.052;2023-10-13T01:52:08;13.27;;;6.47;;
23115;SDS011;11727;52.134;5.052;2023-10-13T01:54:40;18.35;;;6.70;;
23115;SDS011;11727;52.134;5.052;2023-10-13T01:57:11;17.60;;;7.35;;
23115;SDS011;11727;52.134;5.052;2023-10-13T01:59:49;16.50;;;7.05;;
23115;SDS011;11727;52.134;5.052;2023-10-13T02:02:15;11.90;;;5.68;;
23115;SDS011;11727;52.134;5.052;2023-10-13T02:04:53;12.05;;;5.68;;
23115;SDS011;11727;52.134;5.052;2023-10-13T02:07:25;16.05;;;6.82;;
23115;SDS011;11727;52.134;5.052;2023-10-13T02:09:59;15.73;;;5.72;;
23115;SDS011;11727;52.134;5.052;2023-10-13T02:12:29;11.82;;;5.90;;
23115;SDS011;11727;52.134;5.052;2023-10-13T02:15:07;13.73;;;6.20;;
23115;SDS011;11727;52.134;5.052;2023-10-13T02:17:37;12.68;;;5.95;;
23115;SDS011;11727;52.134;5.052;2023-10-13T02:20:06;8.98;;;5.57;;
23115;SDS011;11727;52.134;5.052;2023-10-13T02:22:39;15.63;;;6.28;;
23115;SDS011;11727;52.134;5.052;2023-10-13T02:25:13;10.90;;;6.05;;
23115;SDS011;11727;52.134;5.052;2023-10-13T02:27:59;13.50;;;4.93;;
23115;SDS011;11727;52.134;5.052;2023-10-13T02:30:25;8.73;;;4.95;;
23115;SDS011;11727;52.134;5.052;2023-10-13T02:32:51;11.73;;;5.63;;
23115;SDS011;11727;52.134;5.052;2023-10-13T02:35:18;10.38;;;5.18;;
23115;SDS011;11727;52.134;5.052;2023-10-13T02:37:54;13.20;;;5.30;;
23115;SDS011;11727;52.134;5.052;2023-10-13T02:40:23;9.57;;;4.82;;
23115;SDS011;11727;52.134;5.052;2023-10-13T02:42:48;14.18;;;5.72;;
23115;SDS011;11727;52.134;5.052;2023-10-13T02:45:14;11.75;;;5.03;;
23115;SDS011;11727;52.134;5.052;2023-10-13T02:47:40;13.50;;;5.18;;
23115;SDS011;11727;52.134;5.052;2023-10-13T02:50:10;14.35;;;5.78;;
23115;SDS011;11727;52.134;5.052;2023-10-13T02:52:38;9.35;;;4.70;;
23115;SDS011;11727;52.134;5.052;2023-10-13T02:55:07;11.27;;;5.65;;
23115;SDS011;11727;52.134;5.052;2023-10-13T02:57:50;12.43;;;6.32;;
23115;SDS011;11727;52.134;5.052;2023-10-13T03:00:20;11.60;;;5.18;;
23115;SDS011;11727;52.134;5.052;2023-10-13T03:02:48;9.50;;;5.13;;
23115;SDS011;11727;52.134;5.052;2023-10-13T03:05:23;10.70;;;4.93;;
23115;SDS011;11727;52.134;5.052;2023-10-13T03:07:49;15.45;;;5.65;;
23115;SDS011;11727;52.134;5.052;2023-10-13T03:10:15;16.93;;;6.33;;
23115;SDS011;11727;52.134;5.052;2023-10-13T03:12:44;11.85;;;5.25;;
23115;SDS011;11727;52.134;5.052;2023-10-13T03:15:13;13.00;;;5.60;;
23115;SDS011;11727;52.134;5.052;2023-10-13T03:17:42;11.27;;;5.43;;
23115;SDS011;11727;52.134;5.052;2023-10-13T03:20:11;11.43;;;5.63;;
23115;SDS011;11727;52.134;5.052;2023-10-13T03:22:41;11.38;;;4.60;;
23115;SDS011;11727;52.134;5.052;2023-10-13T03:25:13;16.77;;;6.28;;
23115;SDS011;11727;52.134;5.052;2023-10-13T03:27:55;13.50;;;6.07;;
23115;SDS011;11727;52.134;5.052;2023-10-13T03:30:21;15.15;;;5.38;;
23115;SDS011;11727;52.134;5.052;2023-10-13T03:32:55;17.38;;;6.07;;
23115;SDS011;11727;52.134;5.052;2023-10-13T03:35:21;11.57;;;5.63;;
23115;SDS011;11727;52.134;5.052;2023-10-13T03:37:54;12.23;;;4.88;;
23115;SDS011;11727;52.134;5.052;2023-10-13T03:40:20;18.80;;;5.35;;
23115;SDS011;11727;52.134;5.052;2023-10-13T03:42:56;10.18;;;5.03;;
23115;SDS011;11727;52.134;5.052;2023-10-13T03:45:39;11.05;;;5.13;;
23115;SDS011;11727;52.134;5.052;2023-10-13T03:48:11;12.32;;;5.40;;
23115;SDS011;11727;52.134;5.052;2023-10-13T03:50:50;8.98;;;4.65;;
23115;SDS011;11727;52.134;5.052;2023-10-13T03:53:31;9.93;;;5.07;;
23115;SDS011;11727;52.134;5.052;2023-10-13T03:56:22;10.13;;;5.18;;
23115;SDS011;11727;52.134;5.052;2023-10-13T03:58:52;12.52;;;5.07;;
23115;SDS011;11727;52.134;5.052;2023-10-13T04:01:19;13.82;;;5.20;;
23115;SDS011;11727;52.134;5.052;2023-10-13T04:03:56;10.30;;;5.50;;
23115;SDS011;11727;52.134;5.052;2023-10-13T04:06:36;11.50;;;4.40;;
23115;SDS011;11727;52.134;5.052;2023-10-13T04:09:18;9.68;;;4.80;;
23115;SDS011;11727;52.134;5.052;2023-10-13T04:12:05;10.25;;;4.03;;
23115;SDS011;11727;52.134;5.052;2023-10-13T04:14:44;10.80;;;4.40;;
23115;SDS011;11727;52.134;5.052;2023-10-13T04:17:12;8.77;;;3.80;;
23115;SDS011;11727;52.134;5.052;2023-10-13T04:19:47;8.00;;;4.03;;
23115;SDS011;11727;52.134;5.052;2023-10-13T04:22:38;10.43;;;4.80;;
23115;SDS011;11727;52.134;5.052;2023-10-13T04:25:13;8.98;;;4.93;;
23115;SDS011;11727;52.134;5.052;2023-10-13T04:28:02;10.52;;;4.70;;
23115;SDS011;11727;52.134;5.052;2023-10-13T04:30:52;14.40;;;4.95;;
23115;SDS011;11727;52.134;5.052;2023-10-13T04:33:23;10.63;;;5.35;;
23115;SDS011;11727;52.134;5.052;2023-10-13T04:36:12;11.55;;;4.75;;
23115;SDS011;11727;52.134;5.052;2023-10-13T04:38:45;8.65;;;4.85;;
23115;SDS011;11727;52.134;5.052;2023-10-13T04:41:24;10.90;;;5.38;;
23115;SDS011;11727;52.134;5.052;2023-10-13T04:43:50;6.70;;;4.40;;
23115;SDS011;11727;52.134;5.052;2023-10-13T04:46:20;7.53;;;4.28;;
23115;SDS011;11727;52.134;5.052;2023-10-13T04:49:05;10.00;;;4.90;;
23115;SDS011;11727;52.134;5.052;2023-10-13T04:51:52;11.15;;;4.43;;
23115;SDS011;11727;52.134;5.052;2023-10-13T04:54:29;7.95;;;4.63;;
23115;SDS011;11727;52.134;5.052;2023-10-13T04:57:16;11.93;;;5.18;;
23115;SDS011;11727;52.134;5.052;2023-10-13T05:00:02;11.50;;;4.50;;
23115;SDS011;11727;52.134;5.052;2023-10-13T05:02:35;10.80;;;4.43;;
23115;SDS011;11727;52.134;5.052;2023-10-13T05:05:07;10.98;;;4.95;;
23115;SDS011;11727;52.134;5.052;2023-10-13T05:07:47;9.02;;;4.55;;
23115;SDS011;11727;52.134;5.052;2023-10-13T05:10:34;7.43;;;4.35;;
23115;SDS011;11727;52.134;5.052;2023-10-13T05:13:18;9.00;;;4.18;;
23115;SDS011;11727;52.134;5.052;2023-10-13T05:16:03;8.88;;;4.82;;
23115;SDS011;11727;52.134;5.052;2023-10-13T05:18:47;7.50;;;5.10;;
23115;SDS011;11727;52.134;5.052;2023-10-13T05:21:32;17.92;;;4.97;;
23115;SDS011;11727;52.134;5.052;2023-10-13T05:24:16;10.57;;;5.13;;
23115;SDS011;11727;52.134;5.052;2023-10-13T05:27:00;8.85;;;4.30;;
23115;SDS011;11727;52.134;5.052;2023-10-13T05:29:45;11.32;;;4.47;;
23115;SDS011;11727;52.134;5.052;2023-10-13T05:32:30;16.27;;;4.00;;
23115;SDS011;11727;52.134;5.052;2023-10-13T05:35:14;5.30;;;3.33;;
23115;SDS011;11727;52.134;5.052;2023-10-13T05:37:59;7.32;;;3.63;;
23115;SDS011;11727;52.134;5.052;2023-10-13T05:40:57;12.63;;;3.83;;
23115;SDS011;11727;52.134;5.052;2023-10-13T05:43:43;9.45;;;3.30;;
23115;SDS011;11727;52.134;5.052;2023-10-13T05:46:28;8.15;;;3.05;;
23115;SDS011;11727;52.134;5.052;2023-10-13T05:49:03;12.25;;;4.10;;
23115;SDS011;11727;52.134;5.052;2023-10-13T05:51:42;8.07;;;3.22;;
23115;SDS011;11727;52.134;5.052;2023-10-13T05:54:12;8.32;;;2.97;;
23115;SDS011;11727;52.134;5.052;2023-10-13T05:56:39;14.40;;;3.45;;
23115;SDS011;11727;52.134;5.052;2023-10-13T05:59:34;7.25;;;3.08;;
23115;SDS011;11727;52.134;5.052;2023-10-13T06:02:20;11.38;;;3.28;;
23115;SDS011;11727;52.134;5.052;2023-10-13T06:05:06;7.57;;;3.20;;
23115;SDS011;11727;52.134;5.052;2023-10-13T06:07:52;8.13;;;3.28;;
23115;SDS011;11727;52.134;5.052;2023-10-13T06:10:36;10.05;;;3.72;;
23115;SDS011;11727;52.134;5.052;2023-10-13T06:13:21;13.05;;;3.60;;
23115;SDS011;11727;52.134;5.052;2023-10-13T06:16:10;7.18;;;3.20;;
23115;SDS011;11727;52.134;5.052;2023-10-13T06:18:55;8.18;;;3.55;;
23115;SDS011;11727;52.134;5.052;2023-10-13T06:21:40;6.88;;;3.13;;
23115;SDS011;11727;52.134;5.052;2023-10-13T06:24:24;9.13;;;3.05;;
23115;SDS011;11727;52.134;5.052;2023-10-13T06:27:09;8.15;;;3.10;;
23115;SDS011;11727;52.134;5.052;2023-10-13T06:29:53;6.55;;;3.03;;
23115;SDS011;11727;52.134;5.052;2023-10-13T06:32:19;11.52;;;3.22;;
23115;SDS011;11727;52.134;5.052;2023-10-13T06:34:45;12.07;;;3.58;;
23115;SDS011;11727;52.134;5.052;2023-10-13T06:37:12;8.23;;;3.08;;
23115;SDS011;11727;52.134;5.052;2023-10-13T06:39:50;9.13;;;3.45;;
23115;SDS011;11727;52.134;5.052;2023-10-13T06:42:22;6.70;;;3.42;;
23115;SDS011;11727;52.134;5.052;2023-10-13T06:44:52;7.60;;;3.20;;
23115;SDS011;11727;52.134;5.052;2023-10-13T06:47:21;13.40;;;4.00;;
23115;SDS011;11727;52.134;5.052;2023-10-13T06:49:47;10.43;;;3.35;;
23115;SDS011;11727;52.134;5.052;2023-10-13T06:52:16;13.20;;;4.13;;
23115;SDS011;11727;52.134;5.052;2023-10-13T06:54:42;10.00;;;3.42;;
23115;SDS011;11727;52.134;5.052;2023-10-13T06:57:08;11.60;;;4.10;;
23115;SDS011;11727;52.134;5.052;2023-10-13T06:59:54;11.13;;;4.23;;
23115;SDS011;11727;52.134;5.052;2023-10-13T07:02:20;9.77;;;4.28;;
23115;SDS011;11727;52.134;5.052;2023-10-13T07:04:49;15.20;;;5.03;;
23115;SDS011;11727;52.134;5.052;2023-10-13T07:07:36;6.25;;;4.13;;
23115;SDS011;11727;52.134;5.052;2023-10-13T07:10:07;9.32;;;5.80;;
23115;SDS011;11727;52.134;5.052;2023-10-13T07:12:39;12.60;;;6.85;;
23115;SDS011;11727;52.134;5.052;2023-10-13T07:15:14;13.35;;;6.55;;
23115;SDS011;11727;52.134;5.052;2023-10-13T07:17:43;11.07;;;6.45;;
23115;SDS011;11727;52.134;5.052;2023-10-13T07:20:10;13.45;;;6.35;;
23115;SDS011;11727;52.134;5.052;2023-10-13T07:22:51;12.73;;;6.18;;
23115;SDS011;11727;52.134;5.052;2023-10-13T07:25:28;10.05;;;6.03;;
23115;SDS011;11727;52.134;5.052;2023-10-13T07:27:58;19.02;;;6.53;;
23115;SDS011;11727;52.134;5.052;2023-10-13T07:30:24;13.23;;;5.77;;
23115;SDS011;11727;52.134;5.052;2023-10-13T07:32:51;11.48;;;5.97;;
23115;SDS011;11727;52.134;5.052;2023-10-13T07:35:18;11.48;;;5.13;;
23115;SDS011;11727;52.134;5.052;2023-10-13T07:37:54;11.70;;;5.20;;
23115;SDS011;11727;52.134;5.052;2023-10-13T07:40:21;10.15;;;4.95;;
23115;SDS011;11727;52.134;5.052;2023-10-13T07:43:07;15.85;;;4.95;;
23115;SDS011;11727;52.134;5.052;2023-10-13T07:45:36;12.77;;;5.47;;
23115;SDS011;11727;52.134;5.052;2023-10-13T07:48:04;13.02;;;5.35;;
23115;SDS011;11727;52.134;5.052;2023-10-13T07:50:45;12.00;;;4.57;;
23115;SDS011;11727;52.134;5.052;2023-10-13T07:53:26;11.43;;;4.65;;
23115;SDS011;11727;52.134;5.052;2023-10-13T07:55:59;14.32;;;4.85;;
23115;SDS011;11727;52.134;5.052;2023-10-13T07:58:30;13.80;;;5.10;;
23115;SDS011;11727;52.134;5.052;2023-10-13T08:00:58;9.48;;;4.05;;
23115;SDS011;11727;52.134;5.052;2023-10-13T08:03:23;14.82;;;4.78;;
23115;SDS011;11727;52.134;5.052;2023-10-13T08:06:04;15.75;;;4.90;;
23115;SDS011;11727;52.134;5.052;2023-10-13T08:08:32;17.17;;;5.03;;
23115;SDS011;11727;52.134;5.052;2023-10-13T08:13:43;18.35;;;4.32;;
23115;SDS011;11727;52.134;5.052;2023-10-13T08:16:14;12.38;;;4.47;;
23115;SDS011;11727;52.134;5.052;2023-10-13T08:18:48;10.65;;;4.30;;
23115;SDS011;11727;52.134;5.052;2023-10-13T08:21:15;10.23;;;4.20;;
23115;SDS011;11727;52.134;5.052;2023-10-13T08:23:48;12.32;;;4.25;;
23115;SDS011;11727;52.134;5.052;2023-10-13T08:26:21;15.93;;;3.88;;
23115;SDS011;11727;52.134;5.052;2023-10-13T08:29:05;12.95;;;4.78;;
23115;SDS011;11727;52.134;5.052;2023-10-13T08:31:47;12.85;;;4.30;;
23115;SDS011;11727;52.134;5.052;2023-10-13T08:34:35;8.90;;;4.00;;
23115;SDS011;11727;52.134;5.052;2023-10-13T08:37:25;12.07;;;4.28;;
23115;SDS011;11727;52.134;5.052;2023-10-13T08:39:52;10.60;;;4.03;;
23115;SDS011;11727;52.134;5.052;2023-10-13T08:42:29;12.15;;;3.83;;
23115;SDS011;11727;52.134;5.052;2023-10-13T08:50:43;11.60;;;4.07;;
23115;SDS011;11727;52.134;5.052;2023-10-13T08:56:05;13.73;;;3.63;;
23115;SDS011;11727;52.134;5.052;2023-10-13T08:58:39;9.75;;;4.18;;
23115;SDS011;11727;52.134;5.052;2023-10-13T09:01:24;11.48;;;3.55;;
23115;SDS011;11727;52.134;5.052;2023-10-13T09:04:10;11.45;;;3.58;;
23115;SDS011;11727;52.134;5.052;2023-10-13T09:07:02;11.02;;;4.53;;
23115;SDS011;11727;52.134;5.052;2023-10-13T09:12:11;11.57;;;3.70;;
23115;SDS011;11727;52.134;5.052;2023-10-13T09:14:54;17.38;;;4.28;;
23115;SDS011;11727;52.134;5.052;2023-10-13T09:17:29;12.55;;;4.32;;
23115;SDS011;11727;52.134;5.052;2023-10-13T09:20:02;10.20;;;4.00;;
23115;SDS011;11727;52.134;5.052;2023-10-13T09:22:48;15.30;;;3.83;;
23115;SDS011;11727;52.134;5.052;2023-10-13T09:25:29;15.43;;;4.03;;
23115;SDS011;11727;52.134;5.052;2023-10-13T09:28:00;11.45;;;3.67;;
23115;SDS011;11727;52.134;5.052;2023-10-13T09:30:27;7.80;;;3.70;;
23115;SDS011;11727;52.134;5.052;2023-10-13T09:33:03;14.63;;;3.95;;
23115;SDS011;11727;52.134;5.052;2023-10-13T09:35:29;12.00;;;4.32;;
23115;SDS011;11727;52.134;5.052;2023-10-13T09:37:59;13.70;;;3.70;;
23115;SDS011;11727;52.134;5.052;2023-10-13T09:40:28;15.68;;;3.55;;
23115;SDS011;11727;52.134;5.052;2023-10-13T09:42:57;15.50;;;4.13;;
23115;SDS011;11727;52.134;5.052;2023-10-13T09:45:30;10.95;;;3.40;;
23115;SDS011;11727;52.134;5.052;2023-10-13T09:48:11;10.30;;;3.63;;
23115;SDS011;11727;52.134;5.052;2023-10-13T09:50:51;9.00;;;3.53;;
23115;SDS011;11727;52.134;5.052;2023-10-13T09:53:21;16.70;;;4.22;;
23115;SDS011;11727;52.134;5.052;2023-10-13T09:55:50;12.55;;;3.90;;
23115;SDS011;11727;52.134;5.052;2023-10-13T09:58:52;13.40;;;4.15;;
23115;SDS011;11727;52.134;5.052;2023-10-13T10:01:29;11.13;;;3.53;;
23115;SDS011;11727;52.134;5.052;2023-10-13T10:04:06;17.58;;;4.18;;
23115;SDS011;11727;52.134;5.052;2023-10-13T10:06:36;9.65;;;4.00;;
23115;SDS011;11727;52.134;5.052;2023-10-13T10:09:10;11.82;;;3.33;;
23115;SDS011;11727;52.134;5.052;2023-10-13T10:17:21;14.85;;;3.90;;
23115;SDS011;11727;52.134;5.052;2023-10-13T10:19:51;13.55;;;4.70;;
23115;SDS011;11727;52.134;5.052;2023-10-13T10:22:25;14.88;;;4.03;;
23115;SDS011;11727;52.134;5.052;2023-10-13T10:25:04;10.18;;;3.40;;
23115;SDS011;11727;52.134;5.052;2023-10-13T10:27:54;10.20;;;3.88;;
23115;SDS011;11727;52.134;5.052;2023-10-13T10:30:27;16.23;;;4.10;;
23115;SDS011;11727;52.134;5.052;2023-10-13T10:32:55;10.27;;;3.95;;
23115;SDS011;11727;52.134;5.052;2023-10-13T10:35:27;9.40;;;3.75;;
23115;SDS011;11727;52.134;5.052;2023-10-13T10:38:08;19.15;;;3.88;;
23115;SDS011;11727;52.134;5.052;2023-10-13T10:40:55;11.48;;;3.95;;
23115;SDS011;11727;52.134;5.052;2023-10-13T10:43:26;14.60;;;4.47;;
23115;SDS011;11727;52.134;5.052;2023-10-13T10:46:13;14.82;;;4.20;;
23115;SDS011;11727;52.134;5.052;2023-10-13T10:49:05;13.98;;;4.03;;
23115;SDS011;11727;52.134;5.052;2023-10-13T10:51:36;11.60;;;3.92;;
23115;SDS011;11727;52.134;5.052;2023-10-13T10:54:19;10.07;;;3.63;;
23115;SDS011;11727;52.134;5.052;2023-10-13T10:56:48;11.93;;;4.20;;
23115;SDS011;11727;52.134;5.052;2023-10-13T10:59:21;9.55;;;3.85;;
23115;SDS011;11727;52.134;5.052;2023-10-13T11:02:44;11.05;;;3.97;;
23115;SDS011;11727;52.134;5.052;2023-10-13T11:05:29;12.25;;;4.07;;
23115;SDS011;11727;52.134;5.052;2023-10-13T11:11:01;14.70;;;4.18;;
23115;SDS011;11727;52.134;5.052;2023-10-13T11:17:35;11.30;;;3.88;;
23115;SDS011;11727;52.134;5.052;2023-10-13T11:20:11;16.08;;;3.50;;
23115;SDS011;11727;52.134;5.052;2023-10-13T11:22:41;20.95;;;4.70;;
23115;SDS011;11727;52.134;5.052;2023-10-13T11:28:50;19.25;;;4.38;;
23115;SDS011;11727;52.134;5.052;2023-10-13T11:31:20;14.63;;;4.05;;
23115;SDS011;11727;52.134;5.052;2023-10-13T11:33:49;8.57;;;4.03;;
23115;SDS011;11727;52.134;5.052;2023-10-13T11:36:16;12.13;;;4.03;;
23115;SDS011;11727;52.134;5.052;2023-10-13T11:38:50;12.95;;;4.47;;
23115;SDS011;11727;52.134;5.052;2023-10-13T11:41:22;12.77;;;3.92;;
23115;SDS011;11727;52.134;5.052;2023-10-13T11:43:51;13.68;;;3.88;;
23115;SDS011;11727;52.134;5.052;2023-10-13T11:49:02;13.60;;;3.30;;
23115;SDS011;11727;52.134;5.052;2023-10-13T11:51:51;10.88;;;3.00;;
23115;SDS011;11727;52.134;5.052;2023-10-13T11:54:17;10.95;;;3.15;;
23115;SDS011;11727;52.134;5.052;2023-10-13T11:56:46;10.67;;;3.37;;
23115;SDS011;11727;52.134;5.052;2023-10-13T11:59:13;14.98;;;4.63;;
23115;SDS011;11727;52.134;5.052;2023-10-13T12:01:49;10.60;;;3.60;;
23115;SDS011;11727;52.134;5.052;2023-10-13T12:04:35;19.10;;;3.65;;
23115;SDS011;11727;52.134;5.052;2023-10-13T12:07:14;13.13;;;4.78;;
23115;SDS011;11727;52.134;5.052;2023-10-13T12:09:43;9.13;;;3.58;;
23115;SDS011;11727;52.134;5.052;2023-10-13T12:12:22;8.75;;;4.07;;
23115;SDS011;11727;52.134;5.052;2023-10-13T12:14:47;15.13;;;4.63;;
23115;SDS011;11727;52.134;5.052;2023-10-13T12:17:24;13.05;;;4.25;;
23115;SDS011;11727;52.134;5.052;2023-10-13T12:19:56;14.10;;;3.53;;
23115;SDS011;11727;52.134;5.052;2023-10-13T12:22:23;14.88;;;5.07;;
23115;SDS011;11727;52.134;5.052;2023-10-13T12:24:54;12.00;;;3.67;;
23115;SDS011;11727;52.134;5.052;2023-10-13T12:27:20;8.67;;;3.60;;
23115;SDS011;11727;52.134;5.052;2023-10-13T12:29:49;13.07;;;3.53;;
23115;SDS011;11727;52.134;5.052;2023-10-13T12:32:17;11.10;;;4.20;;
23115;SDS011;11727;52.134;5.052;2023-10-13T12:34:55;17.83;;;4.30;;
23115;SDS011;11727;52.134;5.052;2023-10-13T12:37:30;7.68;;;3.88;;
23115;SDS011;11727;52.134;5.052;2023-10-13T12:40:18;10.20;;;3.38;;
23115;SDS011;11727;52.134;5.052;2023-10-13T12:43:03;13.35;;;4.18;;
23115;SDS011;11727;52.134;5.052;2023-10-13T12:45:48;13.20;;;4.43;;
23115;SDS011;11727;52.134;5.052;2023-10-13T12:48:34;14.18;;;3.70;;
23115;SDS011;11727;52.134;5.052;2023-10-13T12:51:22;9.13;;;3.90;;
23115;SDS011;11727;52.134;5.052;2023-10-13T12:53:54;14.50;;;4.47;;
23115;SDS011;11727;52.134;5.052;2023-10-13T12:56:29;12.68;;;3.80;;
23115;SDS011;11727;52.134;5.052;2023-10-13T12:58:55;20.67;;;4.65;;
23115;SDS011;11727;52.134;5.052;2023-10-13T13:01:22;8.77;;;3.47;;
23115;SDS011;11727;52.134;5.052;2023-10-13T13:03:49;15.50;;;3.83;;
23115;SDS011;11727;52.134;5.052;2023-10-13T13:06:16;8.65;;;4.20;;
23115;SDS011;11727;52.134;5.052;2023-10-13T13:08:51;16.08;;;4.13;;
23115;SDS011;11727;52.134;5.052;2023-10-13T13:11:21;11.32;;;4.55;;
23115;SDS011;11727;52.134;5.052;2023-10-13T13:13:47;12.80;;;4.30;;
23115;SDS011;11727;52.134;5.052;2023-10-13T13:16:14;13.82;;;4.47;;
23115;SDS011;11727;52.134;5.052;2023-10-13T13:18:46;11.50;;;4.07;;
23115;SDS011;11727;52.134;5.052;2023-10-13T13:21:12;12.55;;;5.28;;
23115;SDS011;11727;52.134;5.052;2023-10-13T13:23:45;14.95;;;4.93;;
23115;SDS011;11727;52.134;5.052;2023-10-13T13:26:11;14.05;;;4.05;;
23115;SDS011;11727;52.134;5.052;2023-10-13T13:28:46;12.25;;;3.90;;
23115;SDS011;11727;52.134;5.052;2023-10-13T13:31:18;9.88;;;3.78;;
23115;SDS011;11727;52.134;5.052;2023-10-13T13:33:50;16.75;;;4.57;;
23115;SDS011;11727;52.134;5.052;2023-10-13T13:36:16;11.95;;;4.28;;
23115;SDS011;11727;52.134;5.052;2023-10-13T13:38:42;12.32;;;4.43;;
23115;SDS011;11727;52.134;5.052;2023-10-13T13:41:14;15.90;;;3.78;;
23115;SDS011;11727;52.134;5.052;2023-10-13T13:46:17;12.18;;;4.40;;
23115;SDS011;11727;52.134;5.052;2023-10-13T13:48:44;12.10;;;4.65;;
23115;SDS011;11727;52.134;5.052;2023-10-13T13:51:13;14.85;;;4.28;;
23115;SDS011;11727;52.134;5.052;2023-10-13T13:53:43;9.20;;;3.75;;
23115;SDS011;11727;52.134;5.052;2023-10-13T13:56:15;9.73;;;4.30;;
23115;SDS011;11727;52.134;5.052;2023-10-13T13:58:44;10.93;;;5.55;;
23115;SDS011;11727;52.134;5.052;2023-10-13T14:01:10;20.15;;;4.82;;
23115;SDS011;11727;52.134;5.052;2023-10-13T14:03:40;20.45;;;4.70;;
23115;SDS011;11727;52.134;5.052;2023-10-13T14:06:13;22.42;;;4.93;;
23115;SDS011;11727;52.134;5.052;2023-10-13T14:08:53;17.48;;;5.13;;
23115;SDS011;11727;52.134;5.052;2023-10-13T14:11:29;13.30;;;4.25;;
23115;SDS011;11727;52.134;5.052;2023-10-13T14:14:02;11.93;;;4.20;;
23115;SDS011;11727;52.134;5.052;2023-10-13T14:16:32;16.30;;;4.55;;
23115;SDS011;11727;52.134;5.052;2023-10-13T14:18:58;20.95;;;5.18;;
23115;SDS011;11727;52.134;5.052;2023-10-13T14:21:27;16.15;;;4.50;;
23115;SDS011;11727;52.134;5.052;2023-10-13T14:23:53;13.55;;;4.40;;
23115;SDS011;11727;52.134;5.052;2023-10-13T14:26:19;14.07;;;4.78;;
23115;SDS011;11727;52.134;5.052;2023-10-13T14:28:46;9.93;;;4.13;;
23115;SDS011;11727;52.134;5.052;2023-10-13T14:31:30;10.52;;;4.18;;
23115;SDS011;11727;52.134;5.052;2023-10-13T14:33:57;9.15;;;3.25;;
23115;SDS011;11727;52.134;5.052;2023-10-13T14:36:23;8.98;;;3.05;;
23115;SDS011;11727;52.134;5.052;2023-10-13T14:38:53;8.23;;;2.67;;
23115;SDS011;11727;52.134;5.052;2023-10-13T14:41:22;10.45;;;2.67;;
23115;SDS011;11727;52.134;5.052;2023-10-13T14:43:47;11.40;;;3.25;;
23115;SDS011;11727;52.134;5.052;2023-10-13T14:46:16;11.40;;;2.45;;
23115;SDS011;11727;52.134;5.052;2023-10-13T14:48:48;9.38;;;2.20;;
23115;SDS011;11727;52.134;5.052;2023-10-13T14:51:16;10.38;;;3.25;;
23115;SDS011;11727;52.134;5.052;2023-10-13T14:53:43;8.52;;;1.80;;
23115;SDS011;11727;52.134;5.052;2023-10-13T14:56:12;7.25;;;2.33;;
23115;SDS011;11727;52.134;5.052;2023-10-13T14:58:39;8.93;;;2.15;;
23115;SDS011;11727;52.134;5.052;2023-10-13T15:01:22;10.02;;;2.40;;
23115;SDS011;11727;52.134;5.052;2023-10-13T15:03:52;10.40;;;2.65;;
23115;SDS011;11727;52.134;5.052;2023-10-13T15:06:24;10.23;;;1.73;;
23115;SDS011;11727;52.134;5.052;2023-10-13T15:08:51;8.95;;;2.65;;
23115;SDS011;11727;52.134;5.052;2023-10-13T15:11:19;21.20;;;2.85;;
23115;SDS011;11727;52.134;5.052;2023-10-13T15:13:46;21.50;;;3.58;;
23115;SDS011;11727;52.134;5.052;2023-10-13T15:16:16;11.98;;;2.63;;
23115;SDS011;11727;52.134;5.052;2023-10-13T15:18:43;8.85;;;3.15;;
23115;SDS011;11727;52.134;5.052;2023-10-13T15:21:28;8.63;;;2.85;;
23115;SDS011;11727;52.134;5.052;2023-10-13T15:24:04;11.32;;;3.25;;
23115;SDS011;11727;52.134;5.052;2023-10-13T15:26:41;11.88;;;2.90;;
23115;SDS011;11727;52.134;5.052;2023-10-13T15:29:13;8.85;;;3.35;;
23115;SDS011;11727;52.134;5.052;2023-10-13T15:31:43;12.63;;;3.83;;
23115;SDS011;11727;52.134;5.052;2023-10-13T15:34:30;11.07;;;3.38;;
23115;SDS011;11727;52.134;5.052;2023-10-13T15:36:56;14.30;;;2.83;;
23115;SDS011;11727;52.134;5.052;2023-10-13T15:39:23;13.05;;;3.20;;
23115;SDS011;11727;52.134;5.052;2023-10-13T15:41:50;14.63;;;2.95;;
23115;SDS011;11727;52.134;5.052;2023-10-13T15:44:22;9.73;;;3.05;;
23115;SDS011;11727;52.134;5.052;2023-10-13T15:46:52;12.43;;;4.22;;
23115;SDS011;11727;52.134;5.052;2023-10-13T15:49:19;10.27;;;3.80;;
23115;SDS011;11727;52.134;5.052;2023-10-13T15:51:44;16.23;;;3.80;;
23115;SDS011;11727;52.134;5.052;2023-10-13T15:54:10;14.00;;;4.50;;